sensor_id;sensor_type;location;lat;lon;timestamp;pressure;altitude;pressure_sealevel;temperature;humidity
18784;BME280;9520;50.954;6.968;2023-04-15T00:00:19;100136.69;;;17.17;37.32
18784;BME280;9520;50.954;6.968;2023-04-15T00:00:41;100135.13;;;17.13;37.36
18784;BME280;9520;50.954;6.968;2023-04-15T00:01:03;100143.13;;;17.13;37.52
18784;BME280;9520;50.954;6.968;2023-04-15T00:01:26;100139.59;;;17.12;37.15
18784;BME280;9520;50.954;6.968;2023-04-15T00:01:48;100132.63;;;17.10;36.93
18784;BME280;9520;50.954;6.968;2023-04-15T00:02:14;100130.97;;;17.07;37.10
18784;BME280;9520;50.954;6.968;2023-04-15T00:02:36;100136.16;;;17.10;36.91
18784;BME280;9520;50.954;6.968;2023-04-15T00:03:00;100136.88;;;17.14;37.58
18784;BME280;9520;50.954;6.968;2023-04-15T00:03:23;100129.34;;;17.05;37.45
18784;BME280;9520;50.954;6.968;2023-04-15T00:03:46;100138.66;;;17.13;37.67
18784;BME280;9520;50.954;6.968;2023-04-15T00:04:08;100128.94;;;17.12;37.39
18784;BME280;9520;50.954;6.968;2023-04-15T00:04:30;100136.94;;;17.12;37.12
18784;BME280;9520;50.954;6.968;2023-04-15T00:04:54;100139.69;;;17.11;36.91
18784;BME280;9520;50.954;6.968;2023-04-15T00:05:16;100136.25;;;17.09;37.25
18784;BME280;9520;50.954;6.968;2023-04-15T00:05:37;100136.31;;;17.07;37.39
18784;BME280;9520;50.954;6.968;2023-04-15T00:05:59;100134.44;;;17.09;37.36
18784;BME280;9520;50.954;6.968;2023-04-15T00:06:22;100139.84;;;17.08;37.35
18784;BME280;9520;50.954;6.968;2023-04-15T00:06:49;100138.78;;;17.12;37.56
18784;BME280;9520;50.954;6.968;2023-04-15T00:07:12;100130.66;;;17.13;37.75
18784;BME280;9520;50.954;6.968;2023-04-15T00:07:34;100139.59;;;17.12;37.26
18784;BME280;9520;50.954;6.968;2023-04-15T00:07:56;100130.03;;;17.08;37.17
18784;BME280;9520;50.954;6.968;2023-04-15T00:08:17;100140.69;;;17.08;37.31
18784;BME280;9520;50.954;6.968;2023-04-15T00:08:40;100141.81;;;17.04;37.02
18784;BME280;9520;50.954;6.968;2023-04-15T00:09:02;100143.75;;;17.01;37.10
18784;BME280;9520;50.954;6.968;2023-04-15T00:09:24;100137.81;;;16.96;37.58
18784;BME280;9520;50.954;6.968;2023-04-15T00:09:46;100136.06;;;16.95;37.56
18784;BME280;9520;50.954;6.968;2023-04-15T00:10:09;100137.88;;;16.94;37.71
18784;BME280;9520;50.954;6.968;2023-04-15T00:10:30;100130.91;;;16.92;37.89
18784;BME280;9520;50.954;6.968;2023-04-15T00:10:52;100134.44;;;16.92;37.30
18784;BME280;9520;50.954;6.968;2023-04-15T00:11:14;100139.53;;;16.97;37.41
18784;BME280;9520;50.954;6.968;2023-04-15T00:11:37;100130.75;;;16.95;37.27
18784;BME280;9520;50.954;6.968;2023-04-15T00:11:58;100137.00;;;16.94;37.73
18784;BME280;9520;50.954;6.968;2023-04-15T00:12:20;100137.94;;;16.93;37.95
18784;BME280;9520;50.954;6.968;2023-04-15T00:12:42;100136.31;;;16.90;37.74
18784;BME280;9520;50.954;6.968;2023-04-15T00:13:04;100138.03;;;16.91;37.65
18784;BME280;9520;50.954;6.968;2023-04-15T00:13:26;100139.78;;;16.92;37.64
18784;BME280;9520;50.954;6.968;2023-04-15T00:13:48;100111.34;;;16.74;37.91
18784;BME280;9520;50.954;6.968;2023-04-15T00:14:09;100132.72;;;16.91;38.14
18784;BME280;9520;50.954;6.968;2023-04-15T00:14:33;100135.44;;;16.90;38.08
18784;BME280;9520;50.954;6.968;2023-04-15T00:14:55;100132.94;;;16.87;37.92
18784;BME280;9520;50.954;6.968;2023-04-15T00:15:18;100134.81;;;16.84;37.89
18784;BME280;9520;50.954;6.968;2023-04-15T00:15:39;100137.47;;;16.84;37.91
18784;BME280;9520;50.954;6.968;2023-04-15T00:16:03;100137.53;;;16.83;38.43
18784;BME280;9520;50.954;6.968;2023-04-15T00:16:25;100133.06;;;16.83;38.42
18784;BME280;9520;50.954;6.968;2023-04-15T00:16:46;100133.88;;;16.86;38.26
18784;BME280;9520;50.954;6.968;2023-04-15T00:17:10;100132.22;;;16.83;38.14
18784;BME280;9520;50.954;6.968;2023-04-15T00:17:33;100125.31;;;16.79;38.64
18784;BME280;9520;50.954;6.968;2023-04-15T00:17:55;100134.81;;;16.84;38.40
18784;BME280;9520;50.954;6.968;2023-04-15T00:18:18;100132.06;;;16.86;38.30
18784;BME280;9520;50.954;6.968;2023-04-15T00:18:40;100133.06;;;16.83;38.83
18784;BME280;9520;50.954;6.968;2023-04-15T00:19:01;100132.13;;;16.84;39.03
18784;BME280;9520;50.954;6.968;2023-04-15T00:19:24;100139.25;;;16.84;38.91
18784;BME280;9520;50.954;6.968;2023-04-15T00:19:45;100126.13;;;16.81;38.67
18784;BME280;9520;50.954;6.968;2023-04-15T00:20:08;100136.84;;;16.79;38.78
18784;BME280;9520;50.954;6.968;2023-04-15T00:20:31;100122.59;;;16.80;38.46
18784;BME280;9520;50.954;6.968;2023-04-15T00:20:52;100127.09;;;16.78;38.53
18784;BME280;9520;50.954;6.968;2023-04-15T00:21:14;100128.91;;;16.78;38.74
18784;BME280;9520;50.954;6.968;2023-04-15T00:21:36;100125.38;;;16.77;38.78
18784;BME280;9520;50.954;6.968;2023-04-15T00:21:58;100123.59;;;16.78;38.85
18784;BME280;9520;50.954;6.968;2023-04-15T00:22:21;100126.25;;;16.78;39.17
18784;BME280;9520;50.954;6.968;2023-04-15T00:22:43;100121.78;;;16.78;39.06
18784;BME280;9520;50.954;6.968;2023-04-15T00:23:04;100121.72;;;16.80;38.83
18784;BME280;9520;50.954;6.968;2023-04-15T00:23:26;100114.81;;;16.76;39.02
18784;BME280;9520;50.954;6.968;2023-04-15T00:23:49;100130.50;;;16.82;39.12
18784;BME280;9520;50.954;6.968;2023-04-15T00:24:13;100122.59;;;16.80;39.13
18784;BME280;9520;50.954;6.968;2023-04-15T00:24:35;100126.13;;;16.81;39.03
18784;BME280;9520;50.954;6.968;2023-04-15T00:24:57;100125.25;;;16.80;39.10
18784;BME280;9520;50.954;6.968;2023-04-15T00:25:18;100128.78;;;16.81;38.68
18784;BME280;9520;50.954;6.968;2023-04-15T00:25:41;100126.19;;;16.79;38.47
18784;BME280;9520;50.954;6.968;2023-04-15T00:26:03;100125.31;;;16.79;39.18
18784;BME280;9520;50.954;6.968;2023-04-15T00:26:24;100129.53;;;16.83;39.34
18784;BME280;9520;50.954;6.968;2023-04-15T00:26:47;100123.59;;;16.78;39.32
18784;BME280;9520;50.954;6.968;2023-04-15T00:27:09;100123.50;;;16.79;38.95
18784;BME280;9520;50.954;6.968;2023-04-15T00:27:32;100122.66;;;16.79;39.11
18784;BME280;9520;50.954;6.968;2023-04-15T00:27:54;100123.28;;;16.84;39.02
18784;BME280;9520;50.954;6.968;2023-04-15T00:28:15;100131.22;;;16.86;39.29
18784;BME280;9520;50.954;6.968;2023-04-15T00:28:37;100128.63;;;16.84;38.78
18784;BME280;9520;50.954;6.968;2023-04-15T00:28:59;100128.47;;;16.87;38.63
18784;BME280;9520;50.954;6.968;2023-04-15T00:29:23;100124.09;;;16.86;38.84
18784;BME280;9520;50.954;6.968;2023-04-15T00:29:44;100123.28;;;16.84;38.62
18784;BME280;9520;50.954;6.968;2023-04-15T00:30:07;100120.56;;;16.86;38.65
18784;BME280;9520;50.954;6.968;2023-04-15T00:30:28;100131.28;;;16.84;38.57
18784;BME280;9520;50.954;6.968;2023-04-15T00:30:51;100133.94;;;16.84;39.08
18784;BME280;9520;50.954;6.968;2023-04-15T00:31:13;100129.47;;;16.84;39.11
18784;BME280;9520;50.954;6.968;2023-04-15T00:31:36;100127.63;;;16.87;39.21
18784;BME280;9520;50.954;6.968;2023-04-15T00:31:58;100128.53;;;16.86;38.99
18784;BME280;9520;50.954;6.968;2023-04-15T00:32:20;100126.75;;;16.86;38.91
18784;BME280;9520;50.954;6.968;2023-04-15T00:32:42;100125.00;;;16.85;38.83
18784;BME280;9520;50.954;6.968;2023-04-15T00:33:05;100120.84;;;16.79;38.32
18784;BME280;9520;50.954;6.968;2023-04-15T00:33:29;100131.50;;;16.79;38.68
18784;BME280;9520;50.954;6.968;2023-04-15T00:33:51;100134.22;;;16.78;38.69
18784;BME280;9520;50.954;6.968;2023-04-15T00:34:12;100121.00;;;16.76;38.84
18784;BME280;9520;50.954;6.968;2023-04-15T00:34:36;100121.16;;;16.73;39.05
18784;BME280;9520;50.954;6.968;2023-04-15T00:34:58;100130.88;;;16.74;39.30
18784;BME280;9520;50.954;6.968;2023-04-15T00:35:21;100128.22;;;16.74;39.44
18784;BME280;9520;50.954;6.968;2023-04-15T00:35:44;100129.13;;;16.73;39.32
18784;BME280;9520;50.954;6.968;2023-04-15T00:36:06;100126.41;;;16.75;39.31
18784;BME280;9520;50.954;6.968;2023-04-15T00:36:53;100122.19;;;16.71;39.54
18784;BME280;9520;50.954;6.968;2023-04-15T00:37:16;100128.28;;;16.73;39.23
18784;BME280;9520;50.954;6.968;2023-04-15T00:37:39;100106.72;;;16.60;39.31
18784;BME280;9520;50.954;6.968;2023-04-15T00:38:02;100131.72;;;16.75;39.39
18784;BME280;9520;50.954;6.968;2023-04-15T00:38:25;100129.06;;;16.75;39.69
18784;BME280;9520;50.954;6.968;2023-04-15T00:38:47;100132.66;;;16.74;39.67
18784;BME280;9520;50.954;6.968;2023-04-15T00:39:10;100130.00;;;16.74;39.56
18784;BME280;9520;50.954;6.968;2023-04-15T00:39:33;100127.34;;;16.74;39.59
18784;BME280;9520;50.954;6.968;2023-04-15T00:39:54;100126.56;;;16.72;39.54
18784;BME280;9520;50.954;6.968;2023-04-15T00:40:18;100125.59;;;16.73;39.78
18784;BME280;9520;50.954;6.968;2023-04-15T00:40:40;100130.00;;;16.74;39.83
18784;BME280;9520;50.954;6.968;2023-04-15T00:41:03;100121.59;;;16.64;39.81
18784;BME280;9520;50.954;6.968;2023-04-15T00:41:25;100129.38;;;16.69;39.44
18784;BME280;9520;50.954;6.968;2023-04-15T00:41:47;100131.09;;;16.70;39.38
18784;BME280;9520;50.954;6.968;2023-04-15T00:42:12;100137.44;;;16.67;39.19
18784;BME280;9520;50.954;6.968;2023-04-15T00:42:35;100100.31;;;16.46;39.57
18784;BME280;9520;50.954;6.968;2023-04-15T00:42:57;100133.91;;;16.67;39.45
18784;BME280;9520;50.954;6.968;2023-04-15T00:43:20;100127.78;;;16.65;39.55
18784;BME280;9520;50.954;6.968;2023-04-15T00:43:42;100130.28;;;16.68;39.69
18784;BME280;9520;50.954;6.968;2023-04-15T00:44:05;100136.59;;;16.67;39.42
18784;BME280;9520;50.954;6.968;2023-04-15T00:44:26;100129.53;;;16.66;39.38
18784;BME280;9520;50.954;6.968;2023-04-15T00:44:48;100131.38;;;16.64;39.63
18784;BME280;9520;50.954;6.968;2023-04-15T00:45:11;100091.69;;;16.40;40.13
18784;BME280;9520;50.954;6.968;2023-04-15T00:45:33;100129.94;;;16.57;39.96
18784;BME280;9520;50.954;6.968;2023-04-15T00:45:55;100123.81;;;16.55;39.76
18784;BME280;9520;50.954;6.968;2023-04-15T00:46:20;100139.47;;;16.62;39.59
18784;BME280;9520;50.954;6.968;2023-04-15T00:46:44;100127.97;;;16.62;39.80
18784;BME280;9520;50.954;6.968;2023-04-15T00:47:08;100134.97;;;16.63;39.51
18784;BME280;9520;50.954;6.968;2023-04-15T00:47:30;100134.22;;;16.61;39.48
18784;BME280;9520;50.954;6.968;2023-04-15T00:47:54;100136.72;;;16.64;39.87
18784;BME280;9520;50.954;6.968;2023-04-15T00:48:18;100135.84;;;16.63;39.66
18784;BME280;9520;50.954;6.968;2023-04-15T00:48:42;100121.97;;;16.57;39.80
18784;BME280;9520;50.954;6.968;2023-04-15T00:49:05;100132.25;;;16.64;40.00
18784;BME280;9520;50.954;6.968;2023-04-15T00:49:28;100134.84;;;16.66;39.88
18784;BME280;9520;50.954;6.968;2023-04-15T00:49:51;100118.66;;;16.52;39.71
18784;BME280;9520;50.954;6.968;2023-04-15T00:50:14;100108.13;;;16.49;40.09
18784;BME280;9520;50.954;6.968;2023-04-15T00:50:35;100123.66;;;16.58;40.05
18784;BME280;9520;50.954;6.968;2023-04-15T00:50:57;100125.44;;;16.59;40.23
18784;BME280;9520;50.954;6.968;2023-04-15T00:51:19;100125.28;;;16.62;40.18
18784;BME280;9520;50.954;6.968;2023-04-15T00:51:41;100131.56;;;16.61;40.21
18784;BME280;9520;50.954;6.968;2023-04-15T00:52:04;100130.63;;;16.62;40.18
18784;BME280;9520;50.954;6.968;2023-04-15T00:52:26;100128.81;;;16.62;39.97
18784;BME280;9520;50.954;6.968;2023-04-15T00:52:47;100130.63;;;16.62;40.26
18784;BME280;9520;50.954;6.968;2023-04-15T00:53:09;100135.16;;;16.60;39.95
18784;BME280;9520;50.954;6.968;2023-04-15T00:53:32;100130.75;;;16.59;40.43
18784;BME280;9520;50.954;6.968;2023-04-15T00:53:54;100127.16;;;16.60;40.36
18784;BME280;9520;50.954;6.968;2023-04-15T00:54:17;100133.41;;;16.59;40.04
18784;BME280;9520;50.954;6.968;2023-04-15T00:54:39;100131.56;;;16.61;40.26
18784;BME280;9520;50.954;6.968;2023-04-15T00:55:03;100129.81;;;16.60;39.90
18784;BME280;9520;50.954;6.968;2023-04-15T00:55:26;100117.84;;;16.50;39.95
18784;BME280;9520;50.954;6.968;2023-04-15T00:55:48;100130.63;;;16.62;40.51
18784;BME280;9520;50.954;6.968;2023-04-15T00:56:10;100136.94;;;16.59;40.32
18784;BME280;9520;50.954;6.968;2023-04-15T00:56:36;100129.09;;;16.56;40.15
18784;BME280;9520;50.954;6.968;2023-04-15T00:56:59;100138.88;;;16.56;40.35
18784;BME280;9520;50.954;6.968;2023-04-15T00:57:21;100104.75;;;16.45;40.53
18784;BME280;9520;50.954;6.968;2023-04-15T00:57:43;100133.47;;;16.57;40.04
18784;BME280;9520;50.954;6.968;2023-04-15T00:58:06;100128.09;;;16.59;39.97
18784;BME280;9520;50.954;6.968;2023-04-15T00:58:29;100129.88;;;16.58;39.89
18784;BME280;9520;50.954;6.968;2023-04-15T00:58:52;100120.38;;;16.53;39.54
18784;BME280;9520;50.954;6.968;2023-04-15T00:59:14;100133.41;;;16.59;39.55
18784;BME280;9520;50.954;6.968;2023-04-15T00:59:39;100109.88;;;16.50;39.79
18784;BME280;9520;50.954;6.968;2023-04-15T01:00:01;100098.81;;;16.40;39.82
18784;BME280;9520;50.954;6.968;2023-04-15T01:00:23;100136.25;;;16.54;40.01
18784;BME280;9520;50.954;6.968;2023-04-15T01:00:47;100132.75;;;16.54;39.89
18784;BME280;9520;50.954;6.968;2023-04-15T01:01:09;100131.88;;;16.53;40.26
18784;BME280;9520;50.954;6.968;2023-04-15T01:01:33;100139.84;;;16.53;40.54
18784;BME280;9520;50.954;6.968;2023-04-15T01:01:55;100124.19;;;16.47;40.13
18784;BME280;9520;50.954;6.968;2023-04-15T01:02:19;100135.41;;;16.54;40.35
18784;BME280;9520;50.954;6.968;2023-04-15T01:02:41;100122.41;;;16.48;40.36
18784;BME280;9520;50.954;6.968;2023-04-15T01:03:03;100132.75;;;16.54;40.13
18784;BME280;9520;50.954;6.968;2023-04-15T01:03:25;100133.59;;;16.54;40.41
18784;BME280;9520;50.954;6.968;2023-04-15T01:03:50;100136.38;;;16.53;40.17
18784;BME280;9520;50.954;6.968;2023-04-15T01:04:14;100126.00;;;16.47;40.46
18784;BME280;9520;50.954;6.968;2023-04-15T01:04:37;100133.69;;;16.53;40.48
18784;BME280;9520;50.954;6.968;2023-04-15T01:04:59;100130.16;;;16.52;40.36
18784;BME280;9520;50.954;6.968;2023-04-15T01:05:22;100131.09;;;16.51;40.00
18784;BME280;9520;50.954;6.968;2023-04-15T01:05:44;100132.09;;;16.49;40.23
18784;BME280;9520;50.954;6.968;2023-04-15T01:06:06;100138.22;;;16.51;40.34
18784;BME280;9520;50.954;6.968;2023-04-15T01:06:30;100107.22;;;16.31;39.96
18784;BME280;9520;50.954;6.968;2023-04-15T01:06:53;100132.19;;;16.47;40.03
18784;BME280;9520;50.954;6.968;2023-04-15T01:07:14;100129.44;;;16.49;40.43
18784;BME280;9520;50.954;6.968;2023-04-15T01:07:37;100136.44;;;16.51;40.43
18784;BME280;9520;50.954;6.968;2023-04-15T01:08:00;100129.31;;;16.52;40.14
18784;BME280;9520;50.954;6.968;2023-04-15T01:08:22;100130.16;;;16.52;39.67
18784;BME280;9520;50.954;6.968;2023-04-15T01:08:44;100123.25;;;16.48;39.55
18784;BME280;9520;50.954;6.968;2023-04-15T01:09:05;100131.16;;;16.50;39.41
18784;BME280;9520;50.954;6.968;2023-04-15T01:09:28;100125.84;;;16.50;39.35
18784;BME280;9520;50.954;6.968;2023-04-15T01:09:50;100129.31;;;16.52;39.74
18784;BME280;9520;50.954;6.968;2023-04-15T01:10:12;100127.50;;;16.52;39.87
18784;BME280;9520;50.954;6.968;2023-04-15T01:10:35;100126.53;;;16.53;39.40
18784;BME280;9520;50.954;6.968;2023-04-15T01:11:00;100126.53;;;16.53;40.00
18784;BME280;9520;50.954;6.968;2023-04-15T01:11:23;100124.84;;;16.52;40.15
18784;BME280;9520;50.954;6.968;2023-04-15T01:11:45;100124.09;;;16.49;39.94
18784;BME280;9520;50.954;6.968;2023-04-15T01:12:08;100123.25;;;16.48;40.39
18784;BME280;9520;50.954;6.968;2023-04-15T01:12:32;100125.91;;;16.48;40.08
18784;BME280;9520;50.954;6.968;2023-04-15T01:12:54;100129.44;;;16.49;40.19
18784;BME280;9520;50.954;6.968;2023-04-15T01:13:16;100130.41;;;16.48;39.79
18784;BME280;9520;50.954;6.968;2023-04-15T01:13:38;100134.00;;;16.47;39.55
18784;BME280;9520;50.954;6.968;2023-04-15T01:14:00;100126.94;;;16.46;39.50
18784;BME280;9520;50.954;6.968;2023-04-15T01:14:24;100126.06;;;16.45;39.70
18784;BME280;9520;50.954;6.968;2023-04-15T01:14:46;100131.38;;;16.45;39.47
18784;BME280;9520;50.954;6.968;2023-04-15T01:15:08;100126.22;;;16.42;39.80
18784;BME280;9520;50.954;6.968;2023-04-15T01:15:31;100127.91;;;16.43;39.64
18784;BME280;9520;50.954;6.968;2023-04-15T01:15:54;100132.31;;;16.44;39.35
18784;BME280;9520;50.954;6.968;2023-04-15T01:16:18;100118.16;;;16.43;39.43
18784;BME280;9520;50.954;6.968;2023-04-15T01:16:40;100123.47;;;16.43;39.56
18784;BME280;9520;50.954;6.968;2023-04-15T01:17:02;100128.72;;;16.45;39.71
18784;BME280;9520;50.954;6.968;2023-04-15T01:17:24;100131.44;;;16.43;39.18
18784;BME280;9520;50.954;6.968;2023-04-15T01:17:46;100132.41;;;16.42;39.34
18784;BME280;9520;50.954;6.968;2023-04-15T01:18:09;100124.50;;;16.41;39.64
18784;BME280;9520;50.954;6.968;2023-04-15T01:18:31;100130.69;;;16.41;39.60
18784;BME280;9520;50.954;6.968;2023-04-15T01:18:55;100121.03;;;16.39;39.50
18784;BME280;9520;50.954;6.968;2023-04-15T01:19:18;100126.56;;;16.34;39.48
18784;BME280;9520;50.954;6.968;2023-04-15T01:19:40;100121.13;;;16.37;39.75
18784;BME280;9520;50.954;6.968;2023-04-15T01:20:03;100127.38;;;16.36;39.47
18784;BME280;9520;50.954;6.968;2023-04-15T01:20:26;100121.19;;;16.36;39.20
18784;BME280;9520;50.954;6.968;2023-04-15T01:20:49;100113.66;;;16.27;39.25
18784;BME280;9520;50.954;6.968;2023-04-15T01:21:11;100118.69;;;16.33;39.57
18784;BME280;9520;50.954;6.968;2023-04-15T01:21:35;100120.47;;;16.32;39.70
18784;BME280;9520;50.954;6.968;2023-04-15T01:21:58;100124.06;;;16.31;39.60
18784;BME280;9520;50.954;6.968;2023-04-15T01:22:20;100125.06;;;16.29;39.48
18784;BME280;9520;50.954;6.968;2023-04-15T01:22:43;100118.03;;;16.28;39.44
18784;BME280;9520;50.954;6.968;2023-04-15T01:23:07;100120.59;;;16.29;39.56
18784;BME280;9520;50.954;6.968;2023-04-15T01:23:29;100118.16;;;16.25;39.17
18784;BME280;9520;50.954;6.968;2023-04-15T01:23:52;100127.81;;;16.27;39.35
18784;BME280;9520;50.954;6.968;2023-04-15T01:24:17;100124.19;;;16.28;39.70
18784;BME280;9520;50.954;6.968;2023-04-15T01:24:39;100122.41;;;16.29;39.65
18784;BME280;9520;50.954;6.968;2023-04-15T01:25:05;100128.47;;;16.32;39.22
18784;BME280;9520;50.954;6.968;2023-04-15T01:25:31;100124.19;;;16.28;39.13
18784;BME280;9520;50.954;6.968;2023-04-15T01:25:55;100122.34;;;16.30;39.30
18784;BME280;9520;50.954;6.968;2023-04-15T01:26:17;100117.00;;;16.30;39.70
18784;BME280;9520;50.954;6.968;2023-04-15T01:26:39;100122.41;;;16.29;39.77
18784;BME280;9520;50.954;6.968;2023-04-15T01:27:03;100130.31;;;16.30;39.60
18784;BME280;9520;50.954;6.968;2023-04-15T01:27:26;100121.47;;;16.30;39.66
18784;BME280;9520;50.954;6.968;2023-04-15T01:27:48;100125.88;;;16.31;39.75
18784;BME280;9520;50.954;6.968;2023-04-15T01:28:10;100124.06;;;16.31;39.77
18784;BME280;9520;50.954;6.968;2023-04-15T01:28:31;100122.34;;;16.30;39.86
18784;BME280;9520;50.954;6.968;2023-04-15T01:28:53;100124.00;;;16.33;39.73
18784;BME280;9520;50.954;6.968;2023-04-15T01:29:17;100124.78;;;16.35;39.61
18784;BME280;9520;50.954;6.968;2023-04-15T01:29:39;100128.31;;;16.35;39.24
18784;BME280;9520;50.954;6.968;2023-04-15T01:30:00;100118.88;;;16.28;39.54
18784;BME280;9520;50.954;6.968;2023-04-15T01:30:25;100128.25;;;16.37;39.25
18784;BME280;9520;50.954;6.968;2023-04-15T01:30:47;100125.47;;;16.38;39.41
18784;BME280;9520;50.954;6.968;2023-04-15T01:31:11;100127.22;;;16.39;39.57
18784;BME280;9520;50.954;6.968;2023-04-15T01:31:34;100110.75;;;16.31;39.54
18784;BME280;9520;50.954;6.968;2023-04-15T01:31:56;100126.22;;;16.42;39.65
18784;BME280;9520;50.954;6.968;2023-04-15T01:32:19;100126.28;;;16.40;39.58
18784;BME280;9520;50.954;6.968;2023-04-15T01:32:45;100127.91;;;16.43;39.10
18784;BME280;9520;50.954;6.968;2023-04-15T01:33:07;100119.16;;;16.41;38.86
18784;BME280;9520;50.954;6.968;2023-04-15T01:33:28;100117.59;;;16.37;39.34
18784;BME280;9520;50.954;6.968;2023-04-15T01:33:50;100120.81;;;16.43;39.50
18784;BME280;9520;50.954;6.968;2023-04-15T01:34:12;100124.34;;;16.44;39.34
18784;BME280;9520;50.954;6.968;2023-04-15T01:34:35;100114.13;;;16.35;39.30
18784;BME280;9520;50.954;6.968;2023-04-15T01:34:56;100130.47;;;16.46;39.37
18784;BME280;9520;50.954;6.968;2023-04-15T01:35:18;100130.53;;;16.45;39.43
18784;BME280;9520;50.954;6.968;2023-04-15T01:35:40;100132.31;;;16.44;39.16
18784;BME280;9520;50.954;6.968;2023-04-15T01:36:05;100126.06;;;16.45;39.21
18784;BME280;9520;50.954;6.968;2023-04-15T01:36:28;100124.25;;;16.46;39.52
18784;BME280;9520;50.954;6.968;2023-04-15T01:36:50;100131.22;;;16.48;39.33
18784;BME280;9520;50.954;6.968;2023-04-15T01:37:15;100131.16;;;16.50;38.97
18784;BME280;9520;50.954;6.968;2023-04-15T01:37:39;100128.50;;;16.50;38.84
18784;BME280;9520;50.954;6.968;2023-04-15T01:38:04;100130.28;;;16.49;38.93
18784;BME280;9520;50.954;6.968;2023-04-15T01:38:27;100131.09;;;16.51;38.45
18784;BME280;9520;50.954;6.968;2023-04-15T01:38:50;100128.50;;;16.50;38.50
18784;BME280;9520;50.954;6.968;2023-04-15T01:39:20;100130.41;;;16.48;38.79
18784;BME280;9520;50.954;6.968;2023-04-15T01:39:44;100126.88;;;16.47;38.69
18784;BME280;9520;50.954;6.968;2023-04-15T01:40:10;100113.03;;;16.39;38.66
18784;BME280;9520;50.954;6.968;2023-04-15T01:40:37;100126.78;;;16.49;38.13
18784;BME280;9520;50.954;6.968;2023-04-15T01:41:03;100125.06;;;16.48;38.01
18784;BME280;9520;50.954;6.968;2023-04-15T01:41:31;100126.06;;;16.45;38.00
18784;BME280;9520;50.954;6.968;2023-04-15T01:41:58;100128.66;;;16.47;38.25
18784;BME280;9520;50.954;6.968;2023-04-15T01:42:26;100131.31;;;16.47;37.68
18784;BME280;9520;50.954;6.968;2023-04-15T01:42:51;100131.22;;;16.48;37.87
18784;BME280;9520;50.954;6.968;2023-04-15T01:43:13;100127.63;;;16.49;37.95
18784;BME280;9520;50.954;6.968;2023-04-15T01:43:36;100127.72;;;16.48;38.04
18784;BME280;9520;50.954;6.968;2023-04-15T01:44:16;100129.31;;;16.52;38.56
18784;BME280;9520;50.954;6.968;2023-04-15T01:44:53;100108.53;;;16.41;38.37
18784;BME280;9520;50.954;6.968;2023-04-15T01:45:21;100130.22;;;16.51;38.58
18784;BME280;9520;50.954;6.968;2023-04-15T01:45:45;100123.19;;;16.50;39.01
18784;BME280;9520;50.954;6.968;2023-04-15T01:46:08;100126.78;;;16.49;38.66
18784;BME280;9520;50.954;6.968;2023-04-15T01:46:39;100125.91;;;16.48;38.87
18784;BME280;9520;50.954;6.968;2023-04-15T01:47:16;100127.63;;;16.49;38.50
18784;BME280;9520;50.954;6.968;2023-04-15T01:47:41;100115.34;;;16.47;38.30
18784;BME280;9520;50.954;6.968;2023-04-15T01:48:07;100120.75;;;16.45;38.63
18784;BME280;9520;50.954;6.968;2023-04-15T01:48:31;100129.66;;;16.44;39.12
18784;BME280;9520;50.954;6.968;2023-04-15T01:48:57;100123.34;;;16.47;39.21
18784;BME280;9520;50.954;6.968;2023-04-15T01:49:20;100126.94;;;16.46;39.08
18784;BME280;9520;50.954;6.968;2023-04-15T01:49:41;100123.47;;;16.43;38.86
18784;BME280;9520;50.954;6.968;2023-04-15T01:50:04;100126.00;;;16.47;38.48
18784;BME280;9520;50.954;6.968;2023-04-15T01:50:27;100121.53;;;16.47;38.71
18784;BME280;9520;50.954;6.968;2023-04-15T01:50:49;100126.00;;;16.47;38.40
18784;BME280;9520;50.954;6.968;2023-04-15T01:51:10;100120.69;;;16.47;38.68
18784;BME280;9520;50.954;6.968;2023-04-15T01:51:33;100123.41;;;16.45;38.70
18784;BME280;9520;50.954;6.968;2023-04-15T01:51:55;100130.53;;;16.45;38.87
18784;BME280;9520;50.954;6.968;2023-04-15T01:52:17;100127.84;;;16.45;38.84
18784;BME280;9520;50.954;6.968;2023-04-15T01:52:39;100120.56;;;16.48;38.44
18784;BME280;9520;50.954;6.968;2023-04-15T01:53:01;100130.22;;;16.51;38.78
18784;BME280;9520;50.954;6.968;2023-04-15T01:53:23;100125.78;;;16.51;38.97
18784;BME280;9520;50.954;6.968;2023-04-15T01:53:46;100125.91;;;16.48;38.69
18784;BME280;9520;50.954;6.968;2023-04-15T01:54:07;100125.91;;;16.48;39.09
18784;BME280;9520;50.954;6.968;2023-04-15T01:54:29;100120.75;;;16.45;39.16
18784;BME280;9520;50.954;6.968;2023-04-15T01:54:51;100124.25;;;16.46;39.11
18784;BME280;9520;50.954;6.968;2023-04-15T01:55:15;100122.47;;;16.46;39.31
18784;BME280;9520;50.954;6.968;2023-04-15T01:55:40;100125.34;;;16.41;39.03
18784;BME280;9520;50.954;6.968;2023-04-15T01:56:03;100127.09;;;16.42;38.74
18784;BME280;9520;50.954;6.968;2023-04-15T01:56:24;100115.56;;;16.42;39.16
18784;BME280;9520;50.954;6.968;2023-04-15T01:56:47;100119.16;;;16.41;39.17
18784;BME280;9520;50.954;6.968;2023-04-15T01:57:09;100119.16;;;16.41;38.90
18784;BME280;9520;50.954;6.968;2023-04-15T01:57:30;100124.50;;;16.41;38.97
18784;BME280;9520;50.954;6.968;2023-04-15T01:57:52;100124.50;;;16.41;38.74
18784;BME280;9520;50.954;6.968;2023-04-15T01:58:14;100122.69;;;16.41;38.81
18784;BME280;9520;50.954;6.968;2023-04-15T01:58:37;100122.75;;;16.40;38.90
18784;BME280;9520;50.954;6.968;2023-04-15T01:59:01;100121.91;;;16.39;39.00
18784;BME280;9520;50.954;6.968;2023-04-15T01:59:24;100120.03;;;16.41;39.11
18784;BME280;9520;50.954;6.968;2023-04-15T01:59:46;100112.19;;;16.38;39.09
18784;BME280;9520;50.954;6.968;2023-04-15T02:00:09;100110.59;;;16.34;39.30
18784;BME280;9520;50.954;6.968;2023-04-15T02:00:35;100120.09;;;16.40;39.01
18784;BME280;9520;50.954;6.968;2023-04-15T02:00:57;100112.41;;;16.34;38.91
18784;BME280;9520;50.954;6.968;2023-04-15T02:01:19;100121.03;;;16.39;39.47
18784;BME280;9520;50.954;6.968;2023-04-15T02:01:41;100131.66;;;16.39;39.49
18784;BME280;9520;50.954;6.968;2023-04-15T02:02:04;100125.47;;;16.38;39.48